sensor_id;sensor_type;location;lat;lon;timestamp;P1;durP1;ratioP1;P2;durP2;ratioP2
52386;SDS011;38317;53.084;6.960;2023-05-07T00:02:25;17.05;;;9.55;;
52386;SDS011;38317;53.084;6.960;2023-05-07T00:04:51;17.17;;;9.23;;
52386;SDS011;38317;53.084;6.960;2023-05-07T00:07:17;15.15;;;9.50;;
52386;SDS011;38317;53.084;6.960;2023-05-07T00:09:43;16.63;;;9.20;;
52386;SDS011;38317;53.084;6.960;2023-05-07T00:12:09;18.17;;;10.38;;
52386;SDS011;38317;53.084;6.960;2023-05-07T00:14:35;16.65;;;9.80;;
52386;SDS011;38317;53.084;6.960;2023-05-07T00:17:01;17.70;;;9.80;;
52386;SDS011;38317;53.084;6.960;2023-05-07T00:19:27;16.92;;;11.07;;
52386;SDS011;38317;53.084;6.960;2023-05-07T00:21:53;17.33;;;10.90;;
52386;SDS011;38317;53.084;6.960;2023-05-07T00:24:19;17.33;;;10.27;;
52386;SDS011;38317;53.084;6.960;2023-05-07T00:26:45;15.45;;;10.13;;
52386;SDS011;38317;53.084;6.960;2023-05-07T00:29:10;18.08;;;10.65;;
52386;SDS011;38317;53.084;6.960;2023-05-07T00:31:36;20.13;;;11.07;;
52386;SDS011;38317;53.084;6.960;2023-05-07T00:34:02;19.17;;;11.55;;
52386;SDS011;38317;53.084;6.960;2023-05-07T00:36:28;16.48;;;10.68;;
52386;SDS011;38317;53.084;6.960;2023-05-07T00:38:54;19.33;;;10.32;;
52386;SDS011;38317;53.084;6.960;2023-05-07T00:41:22;18.90;;;11.27;;
52386;SDS011;38317;53.084;6.960;2023-05-07T00:43:47;17.40;;;10.35;;
52386;SDS011;38317;53.084;6.960;2023-05-07T00:46:13;21.58;;;11.45;;
52386;SDS011;38317;53.084;6.960;2023-05-07T00:48:40;20.42;;;11.60;;
52386;SDS011;38317;53.084;6.960;2023-05-07T00:51:06;20.63;;;11.35;;
52386;SDS011;38317;53.084;6.960;2023-05-07T00:53:32;19.55;;;11.25;;
52386;SDS011;38317;53.084;6.960;2023-05-07T00:55:58;19.05;;;11.82;;
52386;SDS011;38317;53.084;6.960;2023-05-07T00:58:25;19.35;;;11.95;;
52386;SDS011;38317;53.084;6.960;2023-05-07T01:00:51;16.65;;;10.98;;
52386;SDS011;38317;53.084;6.960;2023-05-07T01:03:17;18.55;;;11.27;;
52386;SDS011;38317;53.084;6.960;2023-05-07T01:05:43;19.35;;;11.02;;
52386;SDS011;38317;53.084;6.960;2023-05-07T01:08:11;19.20;;;12.10;;
52386;SDS011;38317;53.084;6.960;2023-05-07T01:10:38;20.50;;;12.20;;
52386;SDS011;38317;53.084;6.960;2023-05-07T01:13:07;20.40;;;11.98;;
52386;SDS011;38317;53.084;6.960;2023-05-07T01:15:35;20.00;;;12.57;;
52386;SDS011;38317;53.084;6.960;2023-05-07T01:18:01;21.13;;;12.52;;
52386;SDS011;38317;53.084;6.960;2023-05-07T01:20:27;19.83;;;11.25;;
52386;SDS011;38317;53.084;6.960;2023-05-07T01:22:53;21.75;;;12.40;;
52386;SDS011;38317;53.084;6.960;2023-05-07T01:25:20;21.35;;;12.82;;
52386;SDS011;38317;53.084;6.960;2023-05-07T01:27:46;27.02;;;13.65;;
52386;SDS011;38317;53.084;6.960;2023-05-07T01:30:12;21.73;;;13.45;;
52386;SDS011;38317;53.084;6.960;2023-05-07T01:32:40;23.52;;;14.18;;
52386;SDS011;38317;53.084;6.960;2023-05-07T01:35:09;22.90;;;13.80;;
52386;SDS011;38317;53.084;6.960;2023-05-07T01:37:37;22.08;;;12.40;;
52386;SDS011;38317;53.084;6.960;2023-05-07T01:40:05;21.92;;;13.32;;
52386;SDS011;38317;53.084;6.960;2023-05-07T01:42:32;24.50;;;13.02;;
52386;SDS011;38317;53.084;6.960;2023-05-07T01:44:58;22.58;;;13.32;;
52386;SDS011;38317;53.084;6.960;2023-05-07T01:47:24;23.05;;;13.73;;
52386;SDS011;38317;53.084;6.960;2023-05-07T01:49:51;24.08;;;13.82;;
52386;SDS011;38317;53.084;6.960;2023-05-07T01:52:17;22.83;;;13.35;;
52386;SDS011;38317;53.084;6.960;2023-05-07T01:54:42;25.60;;;14.07;;
52386;SDS011;38317;53.084;6.960;2023-05-07T01:57:08;23.58;;;13.77;;
52386;SDS011;38317;53.084;6.960;2023-05-07T01:59:34;25.85;;;14.13;;
52386;SDS011;38317;53.084;6.960;2023-05-07T02:02:00;22.65;;;14.00;;
52386;SDS011;38317;53.084;6.960;2023-05-07T02:04:25;25.45;;;14.50;;
52386;SDS011;38317;53.084;6.960;2023-05-07T02:06:51;25.20;;;13.68;;
52386;SDS011;38317;53.084;6.960;2023-05-07T02:09:17;23.65;;;12.75;;
52386;SDS011;38317;53.084;6.960;2023-05-07T02:11:43;26.98;;;13.45;;
52386;SDS011;38317;53.084;6.960;2023-05-07T02:14:12;25.13;;;13.85;;
52386;SDS011;38317;53.084;6.960;2023-05-07T02:16:38;23.55;;;13.40;;
52386;SDS011;38317;53.084;6.960;2023-05-07T02:19:04;24.95;;;14.02;;
52386;SDS011;38317;53.084;6.960;2023-05-07T02:21:30;25.70;;;14.63;;
52386;SDS011;38317;53.084;6.960;2023-05-07T02:23:55;24.48;;;13.00;;
52386;SDS011;38317;53.084;6.960;2023-05-07T02:26:21;24.23;;;14.00;;
52386;SDS011;38317;53.084;6.960;2023-05-07T02:28:47;25.98;;;14.10;;
52386;SDS011;38317;53.084;6.960;2023-05-07T02:31:12;26.42;;;14.75;;
52386;SDS011;38317;53.084;6.960;2023-05-07T02:33:38;27.83;;;14.88;;
52386;SDS011;38317;53.084;6.960;2023-05-07T02:36:07;27.05;;;14.50;;
52386;SDS011;38317;53.084;6.960;2023-05-07T02:38:34;24.33;;;14.25;;
52386;SDS011;38317;53.084;6.960;2023-05-07T02:41:00;27.55;;;14.43;;
52386;SDS011;38317;53.084;6.960;2023-05-07T02:43:26;25.55;;;14.40;;
52386;SDS011;38317;53.084;6.960;2023-05-07T02:46:01;21.85;;;13.60;;
52386;SDS011;38317;53.084;6.960;2023-05-07T02:48:27;24.95;;;14.85;;
52386;SDS011;38317;53.084;6.960;2023-05-07T02:50:53;26.95;;;14.63;;
52386;SDS011;38317;53.084;6.960;2023-05-07T02:53:19;22.88;;;13.98;;
52386;SDS011;38317;53.084;6.960;2023-05-07T02:55:45;24.15;;;14.15;;
52386;SDS011;38317;53.084;6.960;2023-05-07T02:58:10;22.25;;;13.65;;
52386;SDS011;38317;53.084;6.960;2023-05-07T03:00:36;26.02;;;14.63;;
52386;SDS011;38317;53.084;6.960;2023-05-07T03:03:02;24.55;;;14.60;;
52386;SDS011;38317;53.084;6.960;2023-05-07T03:05:28;25.25;;;15.10;;
52386;SDS011;38317;53.084;6.960;2023-05-07T03:07:53;28.98;;;15.38;;
52386;SDS011;38317;53.084;6.960;2023-05-07T03:10:19;26.15;;;15.45;;
52386;SDS011;38317;53.084;6.960;2023-05-07T03:12:45;27.70;;;14.90;;
52386;SDS011;38317;53.084;6.960;2023-05-07T03:15:11;23.77;;;14.45;;
52386;SDS011;38317;53.084;6.960;2023-05-07T03:17:37;25.42;;;14.50;;
52386;SDS011;38317;53.084;6.960;2023-05-07T03:20:04;23.40;;;14.23;;
52386;SDS011;38317;53.084;6.960;2023-05-07T03:22:32;25.02;;;13.98;;
52386;SDS011;38317;53.084;6.960;2023-05-07T03:24:57;26.02;;;13.18;;
52386;SDS011;38317;53.084;6.960;2023-05-07T03:27:23;22.80;;;13.52;;
52386;SDS011;38317;53.084;6.960;2023-05-07T03:29:49;25.63;;;13.77;;
52386;SDS011;38317;53.084;6.960;2023-05-07T03:32:15;20.95;;;12.50;;
52386;SDS011;38317;53.084;6.960;2023-05-07T03:34:40;22.30;;;13.23;;
52386;SDS011;38317;53.084;6.960;2023-05-07T03:37:06;23.23;;;14.23;;
52386;SDS011;38317;53.084;6.960;2023-05-07T03:39:32;25.30;;;14.23;;
52386;SDS011;38317;53.084;6.960;2023-05-07T03:41:58;22.17;;;13.52;;
52386;SDS011;38317;53.084;6.960;2023-05-07T03:44:23;23.55;;;13.10;;
52386;SDS011;38317;53.084;6.960;2023-05-07T03:46:49;24.33;;;13.65;;
52386;SDS011;38317;53.084;6.960;2023-05-07T03:49:15;22.90;;;13.30;;
52386;SDS011;38317;53.084;6.960;2023-05-07T03:51:41;22.42;;;12.80;;
52386;SDS011;38317;53.084;6.960;2023-05-07T03:54:07;26.45;;;14.70;;
52386;SDS011;38317;53.084;6.960;2023-05-07T03:56:32;25.73;;;14.38;;
52386;SDS011;38317;53.084;6.960;2023-05-07T03:58:58;22.90;;;13.35;;
52386;SDS011;38317;53.084;6.960;2023-05-07T04:01:24;22.88;;;12.93;;
52386;SDS011;38317;53.084;6.960;2023-05-07T04:03:50;24.30;;;14.50;;
52386;SDS011;38317;53.084;6.960;2023-05-07T04:06:16;22.38;;;13.82;;
52386;SDS011;38317;53.084;6.960;2023-05-07T04:08:45;22.60;;;13.88;;
52386;SDS011;38317;53.084;6.960;2023-05-07T04:11:11;23.98;;;12.63;;
52386;SDS011;38317;53.084;6.960;2023-05-07T04:13:37;21.77;;;12.82;;
52386;SDS011;38317;53.084;6.960;2023-05-07T04:16:03;22.40;;;12.70;;
52386;SDS011;38317;53.084;6.960;2023-05-07T04:18:30;21.55;;;13.65;;
52386;SDS011;38317;53.084;6.960;2023-05-07T04:20:55;22.05;;;12.70;;
52386;SDS011;38317;53.084;6.960;2023-05-07T04:23:21;20.17;;;12.52;;
52386;SDS011;38317;53.084;6.960;2023-05-07T04:25:47;21.60;;;12.90;;
52386;SDS011;38317;53.084;6.960;2023-05-07T04:28:12;20.88;;;13.27;;
52386;SDS011;38317;53.084;6.960;2023-05-07T04:30:39;21.08;;;12.43;;
52386;SDS011;38317;53.084;6.960;2023-05-07T04:33:06;19.38;;;12.93;;
52386;SDS011;38317;53.084;6.960;2023-05-07T04:35:32;21.00;;;12.50;;
52386;SDS011;38317;53.084;6.960;2023-05-07T04:37:57;20.90;;;12.68;;
52386;SDS011;38317;53.084;6.960;2023-05-07T04:40:23;20.23;;;12.73;;
52386;SDS011;38317;53.084;6.960;2023-05-07T04:42:49;19.73;;;12.25;;
52386;SDS011;38317;53.084;6.960;2023-05-07T04:45:16;18.65;;;11.43;;
52386;SDS011;38317;53.084;6.960;2023-05-07T04:47:42;20.13;;;12.40;;
52386;SDS011;38317;53.084;6.960;2023-05-07T04:50:07;20.08;;;11.88;;
52386;SDS011;38317;53.084;6.960;2023-05-07T04:52:34;21.38;;;11.93;;
52386;SDS011;38317;53.084;6.960;2023-05-07T04:54:59;19.40;;;11.93;;
52386;SDS011;38317;53.084;6.960;2023-05-07T04:57:26;21.42;;;12.27;;
52386;SDS011;38317;53.084;6.960;2023-05-07T04:59:52;20.73;;;12.80;;
52386;SDS011;38317;53.084;6.960;2023-05-07T05:02:18;20.45;;;12.93;;
52386;SDS011;38317;53.084;6.960;2023-05-07T05:04:44;19.58;;;11.25;;
52386;SDS011;38317;53.084;6.960;2023-05-07T05:07:10;18.45;;;11.32;;
52386;SDS011;38317;53.084;6.960;2023-05-07T05:09:36;18.77;;;10.90;;
52386;SDS011;38317;53.084;6.960;2023-05-07T05:12:02;18.60;;;11.73;;
52386;SDS011;38317;53.084;6.960;2023-05-07T05:14:28;19.33;;;11.70;;
52386;SDS011;38317;53.084;6.960;2023-05-07T05:16:54;18.85;;;11.90;;
52386;SDS011;38317;53.084;6.960;2023-05-07T05:19:20;18.55;;;11.00;;
52386;SDS011;38317;53.084;6.960;2023-05-07T05:21:46;19.02;;;11.73;;
52386;SDS011;38317;53.084;6.960;2023-05-07T05:24:11;19.02;;;11.90;;
52386;SDS011;38317;53.084;6.960;2023-05-07T05:26:37;19.70;;;11.52;;
52386;SDS011;38317;53.084;6.960;2023-05-07T05:29:03;18.08;;;12.00;;
52386;SDS011;38317;53.084;6.960;2023-05-07T05:31:29;19.73;;;11.90;;
52386;SDS011;38317;53.084;6.960;2023-05-07T05:33:54;18.67;;;11.93;;
52386;SDS011;38317;53.084;6.960;2023-05-07T05:36:20;18.25;;;11.05;;
52386;SDS011;38317;53.084;6.960;2023-05-07T05:38:46;21.42;;;12.90;;
52386;SDS011;38317;53.084;6.960;2023-05-07T05:41:11;19.77;;;12.80;;
52386;SDS011;38317;53.084;6.960;2023-05-07T05:43:37;20.98;;;12.23;;
52386;SDS011;38317;53.084;6.960;2023-05-07T05:46:03;19.25;;;11.45;;
52386;SDS011;38317;53.084;6.960;2023-05-07T05:48:29;18.13;;;11.13;;
52386;SDS011;38317;53.084;6.960;2023-05-07T05:50:55;18.95;;;11.38;;
52386;SDS011;38317;53.084;6.960;2023-05-07T05:53:21;19.27;;;12.38;;
52386;SDS011;38317;53.084;6.960;2023-05-07T05:55:47;17.60;;;11.27;;
52386;SDS011;38317;53.084;6.960;2023-05-07T05:58:12;20.65;;;12.25;;
52386;SDS011;38317;53.084;6.960;2023-05-07T06:00:40;18.60;;;11.57;;
52386;SDS011;38317;53.084;6.960;2023-05-07T06:03:05;20.38;;;12.25;;
52386;SDS011;38317;53.084;6.960;2023-05-07T06:05:31;18.00;;;11.30;;
52386;SDS011;38317;53.084;6.960;2023-05-07T06:07:57;19.77;;;11.50;;
52386;SDS011;38317;53.084;6.960;2023-05-07T06:10:23;17.90;;;11.32;;
52386;SDS011;38317;53.084;6.960;2023-05-07T06:12:49;22.50;;;12.65;;
52386;SDS011;38317;53.084;6.960;2023-05-07T06:15:15;21.35;;;12.80;;
52386;SDS011;38317;53.084;6.960;2023-05-07T06:17:40;19.50;;;11.90;;
52386;SDS011;38317;53.084;6.960;2023-05-07T06:20:06;22.50;;;13.18;;
52386;SDS011;38317;53.084;6.960;2023-05-07T06:22:32;20.98;;;12.07;;
52386;SDS011;38317;53.084;6.960;2023-05-07T06:24:58;21.65;;;12.63;;
52386;SDS011;38317;53.084;6.960;2023-05-07T06:27:24;18.55;;;10.75;;
52386;SDS011;38317;53.084;6.960;2023-05-07T06:29:50;20.30;;;11.23;;
52386;SDS011;38317;53.084;6.960;2023-05-07T06:32:15;23.75;;;13.07;;
52386;SDS011;38317;53.084;6.960;2023-05-07T06:34:42;21.58;;;12.48;;
52386;SDS011;38317;53.084;6.960;2023-05-07T06:37:08;22.17;;;12.60;;
52386;SDS011;38317;53.084;6.960;2023-05-07T06:39:33;19.15;;;11.38;;
52386;SDS011;38317;53.084;6.960;2023-05-07T06:42:00;20.33;;;11.90;;
52386;SDS011;38317;53.084;6.960;2023-05-07T06:44:27;21.67;;;11.95;;
52386;SDS011;38317;53.084;6.960;2023-05-07T06:46:52;22.73;;;11.88;;
52386;SDS011;38317;53.084;6.960;2023-05-07T06:49:18;20.98;;;12.10;;
52386;SDS011;38317;53.084;6.960;2023-05-07T06:51:44;18.17;;;11.98;;
52386;SDS011;38317;53.084;6.960;2023-05-07T06:54:09;17.60;;;10.88;;
52386;SDS011;38317;53.084;6.960;2023-05-07T06:56:35;20.60;;;11.90;;
52386;SDS011;38317;53.084;6.960;2023-05-07T06:59:01;21.38;;;12.40;;
52386;SDS011;38317;53.084;6.960;2023-05-07T07:01:27;24.73;;;13.15;;
52386;SDS011;38317;53.084;6.960;2023-05-07T07:03:53;20.15;;;12.20;;
52386;SDS011;38317;53.084;6.960;2023-05-07T07:06:19;19.52;;;12.07;;
52386;SDS011;38317;53.084;6.960;2023-05-07T07:08:45;23.40;;;13.27;;
52386;SDS011;38317;53.084;6.960;2023-05-07T07:11:11;24.00;;;13.50;;
52386;SDS011;38317;53.084;6.960;2023-05-07T07:13:37;23.23;;;12.10;;
52386;SDS011;38317;53.084;6.960;2023-05-07T07:16:03;22.08;;;12.07;;
52386;SDS011;38317;53.084;6.960;2023-05-07T07:18:29;21.55;;;13.10;;
52386;SDS011;38317;53.084;6.960;2023-05-07T07:20:54;23.50;;;13.32;;
52386;SDS011;38317;53.084;6.960;2023-05-07T07:23:20;21.35;;;11.07;;
52386;SDS011;38317;53.084;6.960;2023-05-07T07:25:46;19.88;;;11.93;;
52386;SDS011;38317;53.084;6.960;2023-05-07T07:28:12;20.20;;;13.18;;
52386;SDS011;38317;53.084;6.960;2023-05-07T07:30:38;21.65;;;11.80;;
52386;SDS011;38317;53.084;6.960;2023-05-07T07:33:03;19.70;;;12.38;;
52386;SDS011;38317;53.084;6.960;2023-05-07T07:35:35;21.42;;;12.52;;
52386;SDS011;38317;53.084;6.960;2023-05-07T07:38:01;19.75;;;12.00;;
52386;SDS011;38317;53.084;6.960;2023-05-07T07:40:27;22.13;;;12.98;;
52386;SDS011;38317;53.084;6.960;2023-05-07T07:42:53;20.80;;;12.65;;
52386;SDS011;38317;53.084;6.960;2023-05-07T07:45:19;19.08;;;11.10;;
52386;SDS011;38317;53.084;6.960;2023-05-07T07:47:45;22.38;;;12.60;;
52386;SDS011;38317;53.084;6.960;2023-05-07T07:50:10;21.15;;;12.85;;
52386;SDS011;38317;53.084;6.960;2023-05-07T07:52:36;21.52;;;12.15;;
52386;SDS011;38317;53.084;6.960;2023-05-07T07:55:02;20.80;;;12.10;;
52386;SDS011;38317;53.084;6.960;2023-05-07T07:57:29;25.55;;;13.25;;
52386;SDS011;38317;53.084;6.960;2023-05-07T07:59:55;19.40;;;11.85;;
52386;SDS011;38317;53.084;6.960;2023-05-07T08:02:21;19.65;;;11.13;;
52386;SDS011;38317;53.084;6.960;2023-05-07T08:04:47;19.23;;;11.70;;
52386;SDS011;38317;53.084;6.960;2023-05-07T08:07:13;20.88;;;11.65;;
52386;SDS011;38317;53.084;6.960;2023-05-07T08:09:39;20.85;;;12.45;;
52386;SDS011;38317;53.084;6.960;2023-05-07T08:12:06;23.05;;;13.07;;
52386;SDS011;38317;53.084;6.960;2023-05-07T08:14:32;21.73;;;12.63;;
52386;SDS011;38317;53.084;6.960;2023-05-07T08:16:59;22.17;;;13.60;;
52386;SDS011;38317;53.084;6.960;2023-05-07T08:19:25;20.77;;;12.00;;
52386;SDS011;38317;53.084;6.960;2023-05-07T08:21:51;19.50;;;12.27;;
52386;SDS011;38317;53.084;6.960;2023-05-07T08:24:17;25.52;;;13.13;;
52386;SDS011;38317;53.084;6.960;2023-05-07T08:26:43;21.45;;;12.70;;
52386;SDS011;38317;53.084;6.960;2023-05-07T08:29:09;21.30;;;12.55;;
52386;SDS011;38317;53.084;6.960;2023-05-07T08:31:35;21.95;;;12.95;;
52386;SDS011;38317;53.084;6.960;2023-05-07T08:34:01;23.65;;;12.65;;
52386;SDS011;38317;53.084;6.960;2023-05-07T08:36:26;20.85;;;11.80;;
52386;SDS011;38317;53.084;6.960;2023-05-07T08:38:53;18.85;;;11.82;;
52386;SDS011;38317;53.084;6.960;2023-05-07T08:41:20;19.10;;;11.82;;
52386;SDS011;38317;53.084;6.960;2023-05-07T08:43:49;22.25;;;12.20;;
52386;SDS011;38317;53.084;6.960;2023-05-07T08:46:20;22.63;;;12.88;;
52386;SDS011;38317;53.084;6.960;2023-05-07T08:48:49;23.27;;;13.18;;
52386;SDS011;38317;53.084;6.960;2023-05-07T08:51:18;20.80;;;12.55;;
52386;SDS011;38317;53.084;6.960;2023-05-07T08:53:45;20.40;;;11.70;;
52386;SDS011;38317;53.084;6.960;2023-05-07T08:56:16;18.35;;;11.43;;
52386;SDS011;38317;53.084;6.960;2023-05-07T08:58:42;19.13;;;11.50;;
52386;SDS011;38317;53.084;6.960;2023-05-07T09:01:09;18.85;;;11.63;;
52386;SDS011;38317;53.084;6.960;2023-05-07T09:03:39;20.42;;;12.18;;
52386;SDS011;38317;53.084;6.960;2023-05-07T09:06:05;20.58;;;11.68;;
52386;SDS011;38317;53.084;6.960;2023-05-07T09:08:34;17.33;;;10.40;;
52386;SDS011;38317;53.084;6.960;2023-05-07T09:11:01;18.60;;;11.32;;
52386;SDS011;38317;53.084;6.960;2023-05-07T09:13:27;17.85;;;10.10;;
52386;SDS011;38317;53.084;6.960;2023-05-07T09:15:54;20.55;;;11.70;;
52386;SDS011;38317;53.084;6.960;2023-05-07T09:18:20;19.58;;;10.85;;
52386;SDS011;38317;53.084;6.960;2023-05-07T09:20:46;18.42;;;10.38;;
52386;SDS011;38317;53.084;6.960;2023-05-07T09:23:12;20.02;;;10.32;;
52386;SDS011;38317;53.084;6.960;2023-05-07T09:25:38;19.75;;;11.00;;
52386;SDS011;38317;53.084;6.960;2023-05-07T09:28:04;17.70;;;10.82;;
52386;SDS011;38317;53.084;6.960;2023-05-07T09:30:35;17.23;;;9.85;;
52386;SDS011;38317;53.084;6.960;2023-05-07T09:33:02;16.63;;;10.00;;
52386;SDS011;38317;53.084;6.960;2023-05-07T09:35:29;17.90;;;10.48;;
52386;SDS011;38317;53.084;6.960;2023-05-07T09:37:56;19.30;;;10.40;;
52386;SDS011;38317;53.084;6.960;2023-05-07T09:40:27;17.45;;;10.18;;
52386;SDS011;38317;53.084;6.960;2023-05-07T09:42:54;18.65;;;9.88;;
52386;SDS011;38317;53.084;6.960;2023-05-07T09:45:27;16.42;;;9.65;;
52386;SDS011;38317;53.084;6.960;2023-05-07T09:47:54;16.20;;;9.40;;
52386;SDS011;38317;53.084;6.960;2023-05-07T09:50:32;15.50;;;9.48;;
52386;SDS011;38317;53.084;6.960;2023-05-07T09:53:01;15.95;;;9.70;;
52386;SDS011;38317;53.084;6.960;2023-05-07T09:55:29;17.13;;;9.68;;
52386;SDS011;38317;53.084;6.960;2023-05-07T09:57:55;17.42;;;10.07;;
52386;SDS011;38317;53.084;6.960;2023-05-07T10:00:22;13.57;;;8.38;;
52386;SDS011;38317;53.084;6.960;2023-05-07T10:02:49;14.02;;;8.68;;
52386;SDS011;38317;53.084;6.960;2023-05-07T10:05:20;15.65;;;8.75;;
52386;SDS011;38317;53.084;6.960;2023-05-07T10:07:47;15.27;;;8.48;;
52386;SDS011;38317;53.084;6.960;2023-05-07T10:10:13;16.52;;;9.23;;
52386;SDS011;38317;53.084;6.960;2023-05-07T10:12:40;12.57;;;7.45;;
52386;SDS011;38317;53.084;6.960;2023-05-07T10:15:07;14.50;;;8.85;;
52386;SDS011;38317;53.084;6.960;2023-05-07T10:17:35;14.32;;;8.77;;
52386;SDS011;38317;53.084;6.960;2023-05-07T10:20:01;14.07;;;8.07;;
52386;SDS011;38317;53.084;6.960;2023-05-07T10:22:28;15.50;;;9.63;;
52386;SDS011;38317;53.084;6.960;2023-05-07T10:24:58;14.20;;;9.20;;
52386;SDS011;38317;53.084;6.960;2023-05-07T10:27:27;14.68;;;9.32;;
52386;SDS011;38317;53.084;6.960;2023-05-07T10:35:20;13.60;;;7.70;;
52386;SDS011;38317;53.084;6.960;2023-05-07T10:37:49;12.98;;;8.32;;
52386;SDS011;38317;53.084;6.960;2023-05-07T10:40:16;14.27;;;8.75;;
52386;SDS011;38317;53.084;6.960;2023-05-07T10:42:55;15.05;;;8.73;;
52386;SDS011;38317;53.084;6.960;2023-05-07T10:45:26;13.15;;;8.57;;
52386;SDS011;38317;53.084;6.960;2023-05-07T10:48:05;12.73;;;8.10;;
52386;SDS011;38317;53.084;6.960;2023-05-07T10:50:32;12.73;;;8.43;;
52386;SDS011;38317;53.084;6.960;2023-05-07T10:55:49;14.30;;;7.88;;
52386;SDS011;38317;53.084;6.960;2023-05-07T10:58:29;12.57;;;8.25;;
52386;SDS011;38317;53.084;6.960;2023-05-07T11:01:00;11.02;;;7.20;;
52386;SDS011;38317;53.084;6.960;2023-05-07T11:03:27;12.38;;;7.82;;
52386;SDS011;38317;53.084;6.960;2023-05-07T11:06:10;12.15;;;7.93;;
52386;SDS011;38317;53.084;6.960;2023-05-07T11:11:16;13.93;;;7.72;;
52386;SDS011;38317;53.084;6.960;2023-05-07T11:13:46;11.45;;;7.55;;
52386;SDS011;38317;53.084;6.960;2023-05-07T11:16:16;11.63;;;6.97;;
52386;SDS011;38317;53.084;6.960;2023-05-07T11:18:51;11.68;;;7.20;;
52386;SDS011;38317;53.084;6.960;2023-05-07T11:21:36;11.40;;;7.50;;
52386;SDS011;38317;53.084;6.960;2023-05-07T11:26:47;14.18;;;8.20;;
52386;SDS011;38317;53.084;6.960;2023-05-07T11:29:14;12.68;;;8.07;;
52386;SDS011;38317;53.084;6.960;2023-05-07T11:31:41;11.73;;;7.32;;
52386;SDS011;38317;53.084;6.960;2023-05-07T11:34:07;11.75;;;6.93;;
52386;SDS011;38317;53.084;6.960;2023-05-07T11:36:33;13.38;;;7.28;;
52386;SDS011;38317;53.084;6.960;2023-05-07T11:38:59;11.63;;;7.75;;
52386;SDS011;38317;53.084;6.960;2023-05-07T11:41:35;12.68;;;7.97;;
52386;SDS011;38317;53.084;6.960;2023-05-07T11:44:01;11.50;;;7.63;;
52386;SDS011;38317;53.084;6.960;2023-05-07T11:46:28;14.18;;;7.88;;
52386;SDS011;38317;53.084;6.960;2023-05-07T11:48:54;12.27;;;7.72;;
52386;SDS011;38317;53.084;6.960;2023-05-07T11:51:22;12.48;;;8.23;;
52386;SDS011;38317;53.084;6.960;2023-05-07T11:53:49;13.30;;;8.55;;
52386;SDS011;38317;53.084;6.960;2023-05-07T11:56:16;12.07;;;7.78;;
52386;SDS011;38317;53.084;6.960;2023-05-07T11:58:46;12.27;;;8.13;;
52386;SDS011;38317;53.084;6.960;2023-05-07T12:01:13;11.23;;;7.72;;
52386;SDS011;38317;53.084;6.960;2023-05-07T12:03:40;11.52;;;6.95;;
52386;SDS011;38317;53.084;6.960;2023-05-07T12:06:16;11.35;;;7.38;;
52386;SDS011;38317;53.084;6.960;2023-05-07T12:08:42;10.98;;;6.80;;
52386;SDS011;38317;53.084;6.960;2023-05-07T12:11:12;14.85;;;7.07;;
52386;SDS011;38317;53.084;6.960;2023-05-07T12:13:39;11.30;;;7.32;;
52386;SDS011;38317;53.084;6.960;2023-05-07T12:16:06;11.75;;;7.40;;
52386;SDS011;38317;53.084;6.960;2023-05-07T12:18:33;10.02;;;6.45;;
52386;SDS011;38317;53.084;6.960;2023-05-07T12:21:00;10.57;;;7.38;;
52386;SDS011;38317;53.084;6.960;2023-05-07T12:23:26;12.23;;;7.00;;
52386;SDS011;38317;53.084;6.960;2023-05-07T12:25:52;9.95;;;6.47;;
52386;SDS011;38317;53.084;6.960;2023-05-07T12:28:18;10.48;;;6.82;;
52386;SDS011;38317;53.084;6.960;2023-05-07T12:30:48;10.32;;;7.15;;
52386;SDS011;38317;53.084;6.960;2023-05-07T12:33:19;9.93;;;6.63;;
52386;SDS011;38317;53.084;6.960;2023-05-07T12:35:48;10.63;;;6.97;;
52386;SDS011;38317;53.084;6.960;2023-05-07T12:38:15;9.75;;;6.78;;
52386;SDS011;38317;53.084;6.960;2023-05-07T12:40:43;10.55;;;6.90;;
52386;SDS011;38317;53.084;6.960;2023-05-07T12:43:17;11.88;;;7.32;;
52386;SDS011;38317;53.084;6.960;2023-05-07T12:45:48;10.25;;;6.75;;
52386;SDS011;38317;53.084;6.960;2023-05-07T12:48:15;10.07;;;6.40;;
52386;SDS011;38317;53.084;6.960;2023-05-07T12:50:41;9.77;;;6.18;;
52386;SDS011;38317;53.084;6.960;2023-05-07T12:53:08;8.80;;;5.50;;
52386;SDS011;38317;53.084;6.960;2023-05-07T12:55:49;8.93;;;5.78;;
52386;SDS011;38317;53.084;6.960;2023-05-07T12:58:20;9.43;;;5.85;;
52386;SDS011;38317;53.084;6.960;2023-05-07T13:00:49;10.13;;;6.13;;
52386;SDS011;38317;53.084;6.960;2023-05-07T13:03:28;9.27;;;6.10;;
52386;SDS011;38317;53.084;6.960;2023-05-07T13:05:59;9.32;;;5.97;;
52386;SDS011;38317;53.084;6.960;2023-05-07T13:08:27;8.57;;;5.93;;
52386;SDS011;38317;53.084;6.960;2023-05-07T13:10:55;8.98;;;5.80;;
52386;SDS011;38317;53.084;6.960;2023-05-07T13:13:22;8.88;;;6.07;;
52386;SDS011;38317;53.084;6.960;2023-05-07T13:15:48;8.43;;;6.13;;
52386;SDS011;38317;53.084;6.960;2023-05-07T13:18:14;8.43;;;5.90;;
52386;SDS011;38317;53.084;6.960;2023-05-07T13:20:39;8.43;;;5.35;;
52386;SDS011;38317;53.084;6.960;2023-05-07T13:23:05;10.20;;;6.25;;
52386;SDS011;38317;53.084;6.960;2023-05-07T13:25:31;8.77;;;6.03;;
52386;SDS011;38317;53.084;6.960;2023-05-07T13:27:57;9.63;;;6.43;;
52386;SDS011;38317;53.084;6.960;2023-05-07T13:30:23;10.23;;;5.82;;
52386;SDS011;38317;53.084;6.960;2023-05-07T13:32:53;9.55;;;5.82;;
52386;SDS011;38317;53.084;6.960;2023-05-07T13:35:20;8.63;;;5.45;;
52386;SDS011;38317;53.084;6.960;2023-05-07T13:37:46;8.50;;;5.70;;
52386;SDS011;38317;53.084;6.960;2023-05-07T13:40:14;8.38;;;5.85;;
52386;SDS011;38317;53.084;6.960;2023-05-07T13:42:40;7.63;;;5.47;;
52386;SDS011;38317;53.084;6.960;2023-05-07T13:45:06;9.32;;;6.20;;
52386;SDS011;38317;53.084;6.960;2023-05-07T13:47:33;8.10;;;5.85;;
52386;SDS011;38317;53.084;6.960;2023-05-07T13:50:00;9.43;;;6.05;;
52386;SDS011;38317;53.084;6.960;2023-05-07T13:52:26;7.97;;;5.13;;
52386;SDS011;38317;53.084;6.960;2023-05-07T13:54:52;7.90;;;5.18;;
52386;SDS011;38317;53.084;6.960;2023-05-07T13:57:18;11.20;;;6.25;;
52386;SDS011;38317;53.084;6.960;2023-05-07T13:59:43;8.77;;;6.45;;
52386;SDS011;38317;53.084;6.960;2023-05-07T14:02:09;11.20;;;6.63;;
52386;SDS011;38317;53.084;6.960;2023-05-07T14:04:35;14.68;;;9.57;;
52386;SDS011;38317;53.084;6.960;2023-05-07T14:07:02;10.77;;;7.30;;
52386;SDS011;38317;53.084;6.960;2023-05-07T14:09:28;10.20;;;7.35;;
52386;SDS011;38317;53.084;6.960;2023-05-07T14:11:54;14.73;;;9.88;;
52386;SDS011;38317;53.084;6.960;2023-05-07T14:14:19;10.32;;;6.57;;
52386;SDS011;38317;53.084;6.960;2023-05-07T14:16:45;12.05;;;7.30;;
52386;SDS011;38317;53.084;6.960;2023-05-07T14:19:11;10.07;;;6.70;;
52386;SDS011;38317;53.084;6.960;2023-05-07T14:21:37;9.50;;;6.30;;
52386;SDS011;38317;53.084;6.960;2023-05-07T14:24:05;10.68;;;7.05;;
52386;SDS011;38317;53.084;6.960;2023-05-07T14:26:32;16.67;;;9.60;;
52386;SDS011;38317;53.084;6.960;2023-05-07T14:28:58;10.93;;;6.88;;
52386;SDS011;38317;53.084;6.960;2023-05-07T14:31:24;9.63;;;6.15;;
52386;SDS011;38317;53.084;6.960;2023-05-07T14:33:50;12.40;;;7.20;;
52386;SDS011;38317;53.084;6.960;2023-05-07T14:36:16;10.50;;;6.90;;
52386;SDS011;38317;53.084;6.960;2023-05-07T14:38:42;10.88;;;7.35;;